sensor_id;sensor_type;location;lat;lon;timestamp;pressure;altitude;pressure_sealevel;temperature;humidity
23417;BME280;11881;42.432;25.632;2022-07-23T00:00:55;99275.69;;;24.57;59.14
23417;BME280;11881;42.432;25.632;2022-07-23T00:03:21;99277.81;;;24.55;59.36
23417;BME280;11881;42.432;25.632;2022-07-23T00:05:46;99268.59;;;24.37;60.18
23417;BME280;11881;42.432;25.632;2022-07-23T00:08:12;99262.16;;;24.32;60.44
23417;BME280;11881;42.432;25.632;2022-07-23T00:10:37;99273.63;;;24.34;60.76
23417;BME280;11881;42.432;25.632;2022-07-23T00:13:03;99268.34;;;24.21;61.91
23417;BME280;11881;42.432;25.632;2022-07-23T00:15:28;99266.78;;;24.13;62.68
23417;BME280;11881;42.432;25.632;2022-07-23T00:17:54;99266.31;;;24.16;63.40
23417;BME280;11881;42.432;25.632;2022-07-23T00:20:19;99272.06;;;24.08;63.39
23417;BME280;11881;42.432;25.632;2022-07-23T00:22:49;99269.44;;;24.01;64.14
23417;BME280;11881;42.432;25.632;2022-07-23T00:25:15;99267.06;;;24.05;63.70
23417;BME280;11881;42.432;25.632;2022-07-23T00:27:40;99263.34;;;24.17;63.53
23417;BME280;11881;42.432;25.632;2022-07-23T00:30:07;99261.03;;;24.21;63.56
23417;BME280;11881;42.432;25.632;2022-07-23T00:32:32;99266.84;;;24.25;63.31
23417;BME280;11881;42.432;25.632;2022-07-23T00:34:58;99250.19;;;24.33;63.33
23417;BME280;11881;42.432;25.632;2022-07-23T00:37:23;99257.13;;;24.35;63.86
23417;BME280;11881;42.432;25.632;2022-07-23T00:39:49;99249.44;;;24.44;63.79
23417;BME280;11881;42.432;25.632;2022-07-23T00:42:14;99253.16;;;24.50;63.06
23417;BME280;11881;42.432;25.632;2022-07-23T00:44:39;99252.78;;;24.46;62.63
23417;BME280;11881;42.432;25.632;2022-07-23T00:47:06;99253.59;;;24.47;63.09
23417;BME280;11881;42.432;25.632;2022-07-23T00:49:31;99253.69;;;24.40;63.59
23417;BME280;11881;42.432;25.632;2022-07-23T00:51:57;99254.31;;;24.24;64.07
23417;BME280;11881;42.432;25.632;2022-07-23T00:54:26;99245.06;;;24.25;64.11
23417;BME280;11881;42.432;25.632;2022-07-23T00:56:52;99247.94;;;24.30;64.06
23417;BME280;11881;42.432;25.632;2022-07-23T00:59:18;99249.91;;;24.41;63.32
23417;BME280;11881;42.432;25.632;2022-07-23T01:01:43;99244.34;;;24.36;63.05
23417;BME280;11881;42.432;25.632;2022-07-23T01:04:10;99250.03;;;24.28;63.04
23417;BME280;11881;42.432;25.632;2022-07-23T01:06:37;99245.56;;;24.33;62.95
23417;BME280;11881;42.432;25.632;2022-07-23T01:09:05;99249.78;;;24.36;63.29
23417;BME280;11881;42.432;25.632;2022-07-23T01:11:35;99244.16;;;24.31;63.57
23417;BME280;11881;42.432;25.632;2022-07-23T01:14:15;99239.94;;;24.35;63.14
23417;BME280;11881;42.432;25.632;2022-07-23T01:16:42;99240.97;;;24.34;62.99
23417;BME280;11881;42.432;25.632;2022-07-23T01:19:08;99237.88;;;24.30;63.38
23417;BME280;11881;42.432;25.632;2022-07-23T01:21:40;99236.56;;;24.33;63.25
23417;BME280;11881;42.432;25.632;2022-07-23T01:24:07;99240.78;;;24.35;62.57
23417;BME280;11881;42.432;25.632;2022-07-23T01:26:32;99237.06;;;24.30;62.54
23417;BME280;11881;42.432;25.632;2022-07-23T01:28:58;99236.06;;;24.06;63.72
23417;BME280;11881;42.432;25.632;2022-07-23T01:31:24;99235.78;;;23.96;64.50
23417;BME280;11881;42.432;25.632;2022-07-23T01:33:49;99229.03;;;23.98;65.07
23417;BME280;11881;42.432;25.632;2022-07-23T01:36:15;99235.63;;;24.09;64.04
23417;BME280;11881;42.432;25.632;2022-07-23T01:38:40;99232.34;;;24.00;63.73
23417;BME280;11881;42.432;25.632;2022-07-23T01:41:05;99225.94;;;23.95;63.72
23417;BME280;11881;42.432;25.632;2022-07-23T01:43:31;99227.69;;;23.89;63.63
23417;BME280;11881;42.432;25.632;2022-07-23T01:45:56;99227.75;;;23.82;63.96
23417;BME280;11881;42.432;25.632;2022-07-23T01:48:21;99231.75;;;23.80;64.06
23417;BME280;11881;42.432;25.632;2022-07-23T01:50:47;99233.41;;;23.81;63.86
23417;BME280;11881;42.432;25.632;2022-07-23T01:53:13;99219.66;;;23.76;64.73
23417;BME280;11881;42.432;25.632;2022-07-23T01:55:39;99228.50;;;23.71;64.63
23417;BME280;11881;42.432;25.632;2022-07-23T01:58:04;99231.00;;;23.73;64.89
23417;BME280;11881;42.432;25.632;2022-07-23T02:00:30;99226.84;;;23.70;64.45
23417;BME280;11881;42.432;25.632;2022-07-23T02:02:56;99225.84;;;23.65;64.98
23417;BME280;11881;42.432;25.632;2022-07-23T02:05:23;99225.84;;;23.65;65.58
23417;BME280;11881;42.432;25.632;2022-07-23T02:07:49;99222.34;;;23.57;65.27
23417;BME280;11881;42.432;25.632;2022-07-23T02:10:14;99232.06;;;23.47;65.44
23417;BME280;11881;42.432;25.632;2022-07-23T02:12:40;99233.72;;;23.48;65.37
23417;BME280;11881;42.432;25.632;2022-07-23T02:15:06;99225.44;;;23.43;65.71
23417;BME280;11881;42.432;25.632;2022-07-23T02:17:32;99228.75;;;23.45;66.30
23417;BME280;11881;42.432;25.632;2022-07-23T02:19:57;99227.91;;;23.44;66.06
23417;BME280;11881;42.432;25.632;2022-07-23T02:22:23;99236.66;;;23.46;65.82
23417;BME280;11881;42.432;25.632;2022-07-23T02:24:48;99238.63;;;23.39;66.33
23417;BME280;11881;42.432;25.632;2022-07-23T02:27:14;99238.78;;;23.44;66.13
23417;BME280;11881;42.432;25.632;2022-07-23T02:29:39;99237.50;;;23.47;66.31
23417;BME280;11881;42.432;25.632;2022-07-23T02:32:05;99238.56;;;23.46;66.19
23417;BME280;11881;42.432;25.632;2022-07-23T02:34:30;99240.69;;;23.44;65.47
23417;BME280;11881;42.432;25.632;2022-07-23T02:36:55;99240.06;;;23.42;64.56
23417;BME280;11881;42.432;25.632;2022-07-23T02:39:21;99239.38;;;23.46;63.76
23417;BME280;11881;42.432;25.632;2022-07-23T02:41:46;99242.34;;;23.45;63.61
23417;BME280;11881;42.432;25.632;2022-07-23T02:44:12;99245.81;;;23.52;63.31
23417;BME280;11881;42.432;25.632;2022-07-23T02:46:37;99236.97;;;23.63;62.71
23417;BME280;11881;42.432;25.632;2022-07-23T02:49:02;99235.34;;;23.55;62.56
23417;BME280;11881;42.432;25.632;2022-07-23T02:51:30;99245.81;;;23.52;62.39
23417;BME280;11881;42.432;25.632;2022-07-23T02:53:55;99255.47;;;23.48;63.22
23417;BME280;11881;42.432;25.632;2022-07-23T02:56:20;99247.13;;;23.49;62.96
23417;BME280;11881;42.432;25.632;2022-07-23T02:58:46;99261.78;;;23.48;63.05
23417;BME280;11881;42.432;25.632;2022-07-23T03:01:11;99257.16;;;23.24;64.03
23417;BME280;11881;42.432;25.632;2022-07-23T03:03:37;99259.25;;;23.22;64.79
23417;BME280;11881;42.432;25.632;2022-07-23T03:06:03;99259.63;;;23.00;65.91
23417;BME280;11881;42.432;25.632;2022-07-23T03:08:29;99265.72;;;22.96;66.31
23417;BME280;11881;42.432;25.632;2022-07-23T03:10:54;99269.63;;;23.06;65.98
23417;BME280;11881;42.432;25.632;2022-07-23T03:13:19;99268.97;;;23.11;66.04
23417;BME280;11881;42.432;25.632;2022-07-23T03:15:45;99272.44;;;23.18;65.83
23417;BME280;11881;42.432;25.632;2022-07-23T03:18:10;99275.72;;;23.02;66.75
23417;BME280;11881;42.432;25.632;2022-07-23T03:20:36;99281.34;;;23.00;67.31
23417;BME280;11881;42.432;25.632;2022-07-23T03:23:02;99276.63;;;22.89;67.96
23417;BME280;11881;42.432;25.632;2022-07-23T03:25:27;99275.75;;;22.95;67.74
23417;BME280;11881;42.432;25.632;2022-07-23T03:27:53;99282.41;;;22.99;67.73
23417;BME280;11881;42.432;25.632;2022-07-23T03:30:18;99281.72;;;23.10;67.41
23417;BME280;11881;42.432;25.632;2022-07-23T03:32:44;99286.69;;;23.20;66.53
23417;BME280;11881;42.432;25.632;2022-07-23T03:35:10;99284.16;;;23.19;66.48
23417;BME280;11881;42.432;25.632;2022-07-23T03:37:35;99276.00;;;23.19;66.93
23417;BME280;11881;42.432;25.632;2022-07-23T03:40:01;99285.25;;;23.11;68.27
23417;BME280;11881;42.432;25.632;2022-07-23T03:42:27;99285.44;;;23.16;67.98
23417;BME280;11881;42.432;25.632;2022-07-23T03:44:52;99284.31;;;23.24;67.89
23417;BME280;11881;42.432;25.632;2022-07-23T03:47:17;99288.22;;;23.34;67.65
23417;BME280;11881;42.432;25.632;2022-07-23T03:49:47;99286.91;;;23.44;67.35
23417;BME280;11881;42.432;25.632;2022-07-23T03:52:13;99282.22;;;23.51;67.29
23417;BME280;11881;42.432;25.632;2022-07-23T03:54:38;99280.13;;;23.53;67.80
23417;BME280;11881;42.432;25.632;2022-07-23T03:57:04;99281.19;;;23.52;67.34
23417;BME280;11881;42.432;25.632;2022-07-23T03:59:29;99280.88;;;23.67;66.29
23417;BME280;11881;42.432;25.632;2022-07-23T04:01:55;99280.75;;;23.80;66.81
23417;BME280;11881;42.432;25.632;2022-07-23T04:04:20;99275.22;;;23.86;66.13
23417;BME280;11881;42.432;25.632;2022-07-23T04:06:46;99284.31;;;23.99;66.47
23417;BME280;11881;42.432;25.632;2022-07-23T04:09:11;99285.91;;;24.06;66.04
23417;BME280;11881;42.432;25.632;2022-07-23T04:11:37;99282.13;;;24.07;65.71
23417;BME280;11881;42.432;25.632;2022-07-23T04:14:02;99279.56;;;24.12;65.77
23417;BME280;11881;42.432;25.632;2022-07-23T04:16:28;99290.66;;;24.29;64.03
23417;BME280;11881;42.432;25.632;2022-07-23T04:18:56;99279.63;;;24.61;62.06
23417;BME280;11881;42.432;25.632;2022-07-23T04:21:22;99280.19;;;24.63;63.07
23417;BME280;11881;42.432;25.632;2022-07-23T04:23:48;99287.59;;;24.44;65.05
23417;BME280;11881;42.432;25.632;2022-07-23T04:26:13;99287.81;;;24.42;66.33
23417;BME280;11881;42.432;25.632;2022-07-23T04:28:39;99284.41;;;24.47;66.70
23417;BME280;11881;42.432;25.632;2022-07-23T04:31:05;99284.72;;;24.69;64.67
23417;BME280;11881;42.432;25.632;2022-07-23T04:33:30;99280.81;;;24.95;62.71
23417;BME280;11881;42.432;25.632;2022-07-23T04:35:56;99285.78;;;24.98;63.18
23417;BME280;11881;42.432;25.632;2022-07-23T04:38:21;99279.34;;;25.11;62.12
23417;BME280;11881;42.432;25.632;2022-07-23T04:40:46;99286.13;;;25.20;62.23
23417;BME280;11881;42.432;25.632;2022-07-23T04:43:12;99283.41;;;25.32;62.17
23417;BME280;11881;42.432;25.632;2022-07-23T04:45:37;99285.34;;;25.43;61.16
23417;BME280;11881;42.432;25.632;2022-07-23T04:48:03;99282.03;;;25.64;59.11
23417;BME280;11881;42.432;25.632;2022-07-23T04:50:29;99283.47;;;25.79;58.65
23417;BME280;11881;42.432;25.632;2022-07-23T04:52:54;99284.19;;;25.86;59.05
23417;BME280;11881;42.432;25.632;2022-07-23T04:55:19;99274.81;;;26.05;57.57
23417;BME280;11881;42.432;25.632;2022-07-23T04:57:45;99280.25;;;26.05;57.14
23417;BME280;11881;42.432;25.632;2022-07-23T05:00:11;99284.16;;;25.97;58.79
23417;BME280;11881;42.432;25.632;2022-07-23T05:02:37;99281.53;;;26.14;58.13
23417;BME280;11881;42.432;25.632;2022-07-23T05:05:02;99280.47;;;26.27;57.77
23417;BME280;11881;42.432;25.632;2022-07-23T05:07:28;99286.53;;;26.17;58.81
23417;BME280;11881;42.432;25.632;2022-07-23T05:09:53;99288.78;;;26.20;58.87
23417;BME280;11881;42.432;25.632;2022-07-23T05:12:19;99280.47;;;26.27;57.22
23417;BME280;11881;42.432;25.632;2022-07-23T05:14:44;99286.63;;;26.46;56.26
23417;BME280;11881;42.432;25.632;2022-07-23T05:17:09;99286.63;;;26.46;55.93
23417;BME280;11881;42.432;25.632;2022-07-23T05:19:35;99286.47;;;26.52;56.98
23417;BME280;11881;42.432;25.632;2022-07-23T05:22:01;99280.97;;;26.64;57.40
23417;BME280;11881;42.432;25.632;2022-07-23T05:24:26;99282.16;;;26.68;56.93
23417;BME280;11881;42.432;25.632;2022-07-23T05:26:52;99288.69;;;26.67;57.13
23417;BME280;11881;42.432;25.632;2022-07-23T05:29:18;99276.56;;;26.92;56.90
23417;BME280;11881;42.432;25.632;2022-07-23T05:31:43;99279.88;;;26.94;57.75
23417;BME280;11881;42.432;25.632;2022-07-23T05:34:09;99282.88;;;26.92;57.69
23417;BME280;11881;42.432;25.632;2022-07-23T05:36:34;99287.91;;;27.12;56.39
23417;BME280;11881;42.432;25.632;2022-07-23T05:38:59;99279.44;;;27.30;55.50
23417;BME280;11881;42.432;25.632;2022-07-23T05:41:25;99281.28;;;27.42;55.74
23417;BME280;11881;42.432;25.632;2022-07-23T05:43:50;99273.81;;;27.54;54.67
23417;BME280;11881;42.432;25.632;2022-07-23T05:46:16;99272.16;;;27.53;54.52
23417;BME280;11881;42.432;25.632;2022-07-23T05:48:41;99264.13;;;27.63;54.11
23417;BME280;11881;42.432;25.632;2022-07-23T05:51:08;99276.31;;;27.55;53.66
23417;BME280;11881;42.432;25.632;2022-07-23T05:53:34;99270.44;;;27.80;53.43
23417;BME280;11881;42.432;25.632;2022-07-23T05:56:00;99269.03;;;27.78;53.29
23417;BME280;11881;42.432;25.632;2022-07-23T05:58:26;99265.84;;;27.86;53.89
23417;BME280;11881;42.432;25.632;2022-07-23T06:00:52;99269.38;;;28.03;54.22
23417;BME280;11881;42.432;25.632;2022-07-23T06:03:17;99265.69;;;28.15;53.30
23417;BME280;11881;42.432;25.632;2022-07-23T06:05:43;99265.06;;;28.07;54.24
23417;BME280;11881;42.432;25.632;2022-07-23T06:08:08;99264.09;;;27.97;52.29
23417;BME280;11881;42.432;25.632;2022-07-23T06:10:34;99268.03;;;28.06;52.85
23417;BME280;11881;42.432;25.632;2022-07-23T06:12:59;99273.03;;;28.09;51.29
23417;BME280;11881;42.432;25.632;2022-07-23T06:15:25;99270.66;;;28.18;51.68
23417;BME280;11881;42.432;25.632;2022-07-23T06:17:50;99282.47;;;28.40;50.85
23417;BME280;11881;42.432;25.632;2022-07-23T06:20:17;99270.19;;;28.43;50.82
23417;BME280;11881;42.432;25.632;2022-07-23T06:22:42;99269.28;;;28.59;49.63
23417;BME280;11881;42.432;25.632;2022-07-23T06:25:08;99262.38;;;28.78;49.09
23417;BME280;11881;42.432;25.632;2022-07-23T06:27:33;99260.72;;;28.77;50.45
23417;BME280;11881;42.432;25.632;2022-07-23T06:29:59;99265.59;;;28.70;47.99
23417;BME280;11881;42.432;25.632;2022-07-23T06:32:24;99262.31;;;28.95;47.50
23417;BME280;11881;42.432;25.632;2022-07-23T06:34:50;99266.03;;;29.16;46.62
23417;BME280;11881;42.432;25.632;2022-07-23T06:37:16;99253.97;;;29.12;48.05
23417;BME280;11881;42.432;25.632;2022-07-23T06:39:41;99257.63;;;29.28;49.89
23417;BME280;11881;42.432;25.632;2022-07-23T06:42:07;99253.06;;;29.38;49.04
23417;BME280;11881;42.432;25.632;2022-07-23T06:44:32;99256.00;;;29.59;48.42
23417;BME280;11881;42.432;25.632;2022-07-23T06:46:58;99248.44;;;29.76;46.88
23417;BME280;11881;42.432;25.632;2022-07-23T06:49:23;99252.91;;;29.87;45.21
23417;BME280;11881;42.432;25.632;2022-07-23T06:51:49;99255.88;;;29.81;46.13
23417;BME280;11881;42.432;25.632;2022-07-23T06:54:14;99246.00;;;29.85;45.49
23417;BME280;11881;42.432;25.632;2022-07-23T06:56:39;99248.81;;;29.95;44.45
23417;BME280;11881;42.432;25.632;2022-07-23T06:59:05;99246.41;;;30.09;43.89
23417;BME280;11881;42.432;25.632;2022-07-23T07:01:31;99247.06;;;30.26;44.23
23417;BME280;11881;42.432;25.632;2022-07-23T07:03:56;99254.22;;;30.32;44.26
23417;BME280;11881;42.432;25.632;2022-07-23T07:06:22;99245.72;;;30.29;44.33
23417;BME280;11881;42.432;25.632;2022-07-23T07:08:47;99247.63;;;30.28;45.76
23417;BME280;11881;42.432;25.632;2022-07-23T07:11:13;99246.47;;;30.19;43.45
23417;BME280;11881;42.432;25.632;2022-07-23T07:13:38;99249.03;;;30.36;44.62
23417;BME280;11881;42.432;25.632;2022-07-23T07:16:04;99250.19;;;30.50;44.20
23417;BME280;11881;42.432;25.632;2022-07-23T07:18:30;99245.78;;;30.54;43.97
23417;BME280;11881;42.432;25.632;2022-07-23T07:20:56;99237.84;;;30.63;42.83
23417;BME280;11881;42.432;25.632;2022-07-23T07:23:22;99240.03;;;30.66;42.31
23417;BME280;11881;42.432;25.632;2022-07-23T07:25:47;99232.69;;;30.82;43.26
23417;BME280;11881;42.432;25.632;2022-07-23T07:28:13;99228.00;;;31.08;42.05
23417;BME280;11881;42.432;25.632;2022-07-23T07:30:38;99225.53;;;31.06;42.69
23417;BME280;11881;42.432;25.632;2022-07-23T07:33:04;99228.88;;;31.08;41.91
23417;BME280;11881;42.432;25.632;2022-07-23T07:35:29;99227.47;;;30.95;42.75
23417;BME280;11881;42.432;25.632;2022-07-23T07:37:56;99237.38;;;31.02;43.09
23417;BME280;11881;42.432;25.632;2022-07-23T07:40:21;99230.78;;;31.23;42.36
23417;BME280;11881;42.432;25.632;2022-07-23T07:42:49;99229.41;;;31.46;41.19
23417;BME280;11881;42.432;25.632;2022-07-23T07:45:15;99221.13;;;31.66;41.65
23417;BME280;11881;42.432;25.632;2022-07-23T07:47:40;99225.50;;;31.83;40.93
23417;BME280;11881;42.432;25.632;2022-07-23T07:50:07;99218.63;;;31.95;38.72
23417;BME280;11881;42.432;25.632;2022-07-23T07:52:34;99218.63;;;31.95;38.91
23417;BME280;11881;42.432;25.632;2022-07-23T07:55:02;99218.63;;;31.85;38.27
23417;BME280;11881;42.432;25.632;2022-07-23T07:57:28;99216.97;;;31.74;38.83
23417;BME280;11881;42.432;25.632;2022-07-23T07:59:53;99214.78;;;31.66;38.94
23417;BME280;11881;42.432;25.632;2022-07-23T08:02:19;99217.22;;;31.93;39.02
23417;BME280;11881;42.432;25.632;2022-07-23T08:04:44;99213.28;;;32.14;38.11
23417;BME280;11881;42.432;25.632;2022-07-23T08:07:10;99213.22;;;32.35;38.24
23417;BME280;11881;42.432;25.632;2022-07-23T08:09:35;99206.31;;;32.42;36.52
23417;BME280;11881;42.432;25.632;2022-07-23T08:12:00;99196.91;;;32.48;37.11
23417;BME280;11881;42.432;25.632;2022-07-23T08:14:26;99202.31;;;32.58;37.24
23417;BME280;11881;42.432;25.632;2022-07-23T08:16:51;99197.84;;;32.73;37.81
23417;BME280;11881;42.432;25.632;2022-07-23T08:19:17;99201.72;;;32.72;36.97
23417;BME280;11881;42.432;25.632;2022-07-23T08:21:42;99191.69;;;32.81;36.96
23417;BME280;11881;42.432;25.632;2022-07-23T08:24:07;99199.56;;;33.03;36.35
23417;BME280;11881;42.432;25.632;2022-07-23T08:26:33;99186.28;;;33.05;36.31
23417;BME280;11881;42.432;25.632;2022-07-23T08:28:59;99194.81;;;33.08;36.82
23417;BME280;11881;42.432;25.632;2022-07-23T08:31:24;99189.34;;;33.03;35.44
23417;BME280;11881;42.432;25.632;2022-07-23T08:33:49;99193.06;;;32.83;36.52
23417;BME280;11881;42.432;25.632;2022-07-23T08:36:15;99190.78;;;32.96;36.28
23417;BME280;11881;42.432;25.632;2022-07-23T08:38:40;99192.13;;;33.32;36.23
23417;BME280;11881;42.432;25.632;2022-07-23T08:41:07;99195.84;;;33.52;35.21
23417;BME280;11881;42.432;25.632;2022-07-23T08:43:33;99191.00;;;33.62;34.94
23417;BME280;11881;42.432;25.632;2022-07-23T08:46:01;99189.63;;;33.89;33.39
23417;BME280;11881;42.432;25.632;2022-07-23T08:48:29;99189.81;;;33.98;33.28
23417;BME280;11881;42.432;25.632;2022-07-23T08:50:57;99175.72;;;33.99;33.33
23417;BME280;11881;42.432;25.632;2022-07-23T08:53:24;99178.88;;;34.11;32.82
23417;BME280;11881;42.432;25.632;2022-07-23T08:55:53;99181.34;;;34.13;33.17
23417;BME280;11881;42.432;25.632;2022-07-23T08:58:19;99183.53;;;34.16;33.07
23417;BME280;11881;42.432;25.632;2022-07-23T09:00:46;99181.94;;;34.10;31.58
23417;BME280;11881;42.432;25.632;2022-07-23T09:03:18;99181.34;;;34.13;32.10
23417;BME280;11881;42.432;25.632;2022-07-23T09:05:45;99181.91;;;34.34;31.14
23417;BME280;11881;42.432;25.632;2022-07-23T09:08:16;99174.34;;;34.39;31.17
23417;BME280;11881;42.432;25.632;2022-07-23T09:13:27;99174.31;;;34.63;31.24
23417;BME280;11881;42.432;25.632;2022-07-23T09:15:55;99168.63;;;34.74;31.16
23417;BME280;11881;42.432;25.632;2022-07-23T09:18:33;99159.44;;;34.92;31.14
23417;BME280;11881;42.432;25.632;2022-07-23T09:21:10;99162.28;;;35.06;30.44
23417;BME280;11881;42.432;25.632;2022-07-23T09:23:44;99152.72;;;34.98;30.64
23417;BME280;11881;42.432;25.632;2022-07-23T09:26:36;99152.72;;;34.98;30.93
23417;BME280;11881;42.432;25.632;2022-07-23T09:29:20;99153.38;;;35.09;30.36
23417;BME280;11881;42.432;25.632;2022-07-23T09:31:52;99148.19;;;35.21;30.62
23417;BME280;11881;42.432;25.632;2022-07-23T09:34:23;99142.97;;;35.33;29.72
23417;BME280;11881;42.432;25.632;2022-07-23T09:36:53;99139.28;;;35.38;29.39
23417;BME280;11881;42.432;25.632;2022-07-23T09:39:34;99137.84;;;35.40;29.84
23417;BME280;11881;42.432;25.632;2022-07-23T09:42:22;99139.38;;;35.33;29.12
23417;BME280;11881;42.432;25.632;2022-07-23T09:44:53;99143.78;;;35.34;29.92
23417;BME280;11881;42.432;25.632;2022-07-23T09:47:19;99137.59;;;35.09;29.83
23417;BME280;11881;42.432;25.632;2022-07-23T09:52:29;99132.59;;;35.39;29.33
23417;BME280;11881;42.432;25.632;2022-07-23T09:55:00;99125.78;;;35.50;29.55
23417;BME280;11881;42.432;25.632;2022-07-23T09:57:27;99130.44;;;35.36;29.06
23417;BME280;11881;42.432;25.632;2022-07-23T09:59:56;99121.94;;;35.32;28.90
23417;BME280;11881;42.432;25.632;2022-07-23T10:02:24;99122.03;;;35.27;29.18
23417;BME280;11881;42.432;25.632;2022-07-23T10:04:53;99123.88;;;35.32;29.22
23417;BME280;11881;42.432;25.632;2022-07-23T10:07:23;99116.06;;;35.34;29.82
23417;BME280;11881;42.432;25.632;2022-07-23T10:09:52;99119.00;;;35.56;28.77
23417;BME280;11881;42.432;25.632;2022-07-23T10:12:19;99115.31;;;35.61;28.42
23417;BME280;11881;42.432;25.632;2022-07-23T10:15:04;99106.25;;;35.83;28.83
23417;BME280;11881;42.432;25.632;2022-07-23T10:17:31;99102.75;;;35.91;28.12
23417;BME280;11881;42.432;25.632;2022-07-23T10:19:57;99095.13;;;36.10;27.62
23417;BME280;11881;42.432;25.632;2022-07-23T10:22:25;99092.69;;;36.09;27.52
23417;BME280;11881;42.432;25.632;2022-07-23T10:25:18;99082.56;;;36.27;28.55
23417;BME280;11881;42.432;25.632;2022-07-23T10:28:11;99084.41;;;36.31;27.43
23417;BME280;11881;42.432;25.632;2022-07-23T10:33:41;99081.84;;;36.57;27.25
23417;BME280;11881;42.432;25.632;2022-07-23T10:36:18;99080.91;;;36.62;27.44
23417;BME280;11881;42.432;25.632;2022-07-23T10:38:58;99078.75;;;36.59;27.72
23417;BME280;11881;42.432;25.632;2022-07-23T10:44:06;99068.59;;;36.76;26.58
23417;BME280;11881;42.432;25.632;2022-07-23T10:46:32;99064.63;;;36.69;26.68
23417;BME280;11881;42.432;25.632;2022-07-23T10:52:25;99047.50;;;36.98;26.45
23417;BME280;11881;42.432;25.632;2022-07-23T10:57:50;99040.75;;;37.21;26.55
23417;BME280;11881;42.432;25.632;2022-07-23T11:00:26;99036.31;;;37.12;26.30
23417;BME280;11881;42.432;25.632;2022-07-23T11:02:56;99034.09;;;37.31;26.60
23417;BME280;11881;42.432;25.632;2022-07-23T11:05:25;99037.75;;;37.40;25.39
23417;BME280;11881;42.432;25.632;2022-07-23T11:10:39;99027.38;;;37.32;25.61
23417;BME280;11881;42.432;25.632;2022-07-23T11:32:04;99020.72;;;36.71;26.79
23417;BME280;11881;42.432;25.632;2022-07-23T11:34:40;99021.34;;;36.99;26.90
23417;BME280;11881;42.432;25.632;2022-07-23T11:37:09;99013.69;;;36.96;26.40
23417;BME280;11881;42.432;25.632;2022-07-23T11:39:35;99005.28;;;36.56;26.57
23417;BME280;11881;42.432;25.632;2022-07-23T11:42:03;98996.31;;;36.37;27.23
23417;BME280;11881;42.432;25.632;2022-07-23T11:44:35;99011.00;;;36.15;26.50
23417;BME280;11881;42.432;25.632;2022-07-23T11:47:04;98999.47;;;36.44;26.08
23417;BME280;11881;42.432;25.632;2022-07-23T11:49:30;99006.16;;;36.65;26.15
23417;BME280;11881;42.432;25.632;2022-07-23T11:52:22;98997.31;;;36.63;27.67
23417;BME280;11881;42.432;25.632;2022-07-23T11:57:17;98993.31;;;37.09;27.83
23417;BME280;11881;42.432;25.632;2022-07-23T11:59:43;98993.56;;;37.30;27.07
23417;BME280;11881;42.432;25.632;2022-07-23T12:02:11;98989.03;;;37.51;26.58
23417;BME280;11881;42.432;25.632;2022-07-23T12:04:41;98984.00;;;37.79;26.12
23417;BME280;11881;42.432;25.632;2022-07-23T12:07:33;98986.28;;;37.69;25.94
23417;BME280;11881;42.432;25.632;2022-07-23T12:10:13;98990.25;;;37.28;25.27
23417;BME280;11881;42.432;25.632;2022-07-23T12:12:58;98986.97;;;36.86;25.51
23417;BME280;11881;42.432;25.632;2022-07-23T12:15:27;98991.03;;;36.80;25.62
23417;BME280;11881;42.432;25.632;2022-07-23T12:17:54;98982.31;;;36.95;25.78
23417;BME280;11881;42.432;25.632;2022-07-23T12:20:26;98984.41;;;37.29;25.75
23417;BME280;11881;42.432;25.632;2022-07-23T12:22:56;98973.84;;;37.49;25.57
23417;BME280;11881;42.432;25.632;2022-07-23T12:25:28;98983.53;;;37.77;24.94
23417;BME280;11881;42.432;25.632;2022-07-23T12:30:30;98978.41;;;37.62;25.04
23417;BME280;11881;42.432;25.632;2022-07-23T12:32:57;98976.91;;;37.39;25.24
23417;BME280;11881;42.432;25.632;2022-07-23T12:35:36;98972.47;;;37.29;25.32
23417;BME280;11881;42.432;25.632;2022-07-23T12:38:05;98967.63;;;37.52;25.12
23417;BME280;11881;42.432;25.632;2022-07-23T12:43:20;98972.22;;;37.74;24.04
23417;BME280;11881;42.432;25.632;2022-07-23T12:46:06;98962.75;;;37.92;23.85
23417;BME280;11881;42.432;25.632;2022-07-23T12:51:14;98965.91;;;37.82;24.34
23417;BME280;11881;42.432;25.632;2022-07-23T12:53:51;98968.31;;;37.58;25.27
23417;BME280;11881;42.432;25.632;2022-07-23T12:56:18;98950.47;;;37.76;25.03
23417;BME280;11881;42.432;25.632;2022-07-23T13:04:11;98949.53;;;37.89;24.60
23417;BME280;11881;42.432;25.632;2022-07-23T13:06:58;98949.03;;;37.87;24.55
23417;BME280;11881;42.432;25.632;2022-07-23T13:09:28;98938.56;;;37.93;24.60
23417;BME280;11881;42.432;25.632;2022-07-23T13:11:54;98939.84;;;37.78;25.87
23417;BME280;11881;42.432;25.632;2022-07-23T13:14:21;98938.22;;;38.03;24.02
23417;BME280;11881;42.432;25.632;2022-07-23T13:16:48;98932.34;;;38.04;24.79
23417;BME280;11881;42.432;25.632;2022-07-23T13:19:14;98930.38;;;38.05;23.71
23417;BME280;11881;42.432;25.632;2022-07-23T13:21:40;98933.31;;;38.00;24.51
23417;BME280;11881;42.432;25.632;2022-07-23T13:24:06;98934.47;;;37.99;24.47
23417;BME280;11881;42.432;25.632;2022-07-23T13:26:32;98932.19;;;37.84;24.80
23417;BME280;11881;42.432;25.632;2022-07-23T13:28:57;98933.00;;;37.84;24.62
23417;BME280;11881;42.432;25.632;2022-07-23T13:31:23;98928.09;;;37.81;23.67
23417;BME280;11881;42.432;25.632;2022-07-23T13:33:49;98928.22;;;37.67;24.26
23417;BME280;11881;42.432;25.632;2022-07-23T13:36:15;98931.97;;;37.54;24.52
23417;BME280;11881;42.432;25.632;2022-07-23T13:38:40;98924.31;;;37.60;24.64
23417;BME280;11881;42.432;25.632;2022-07-23T13:41:06;98921.03;;;37.58;25.17
23417;BME280;11881;42.432;25.632;2022-07-23T13:43:32;98921.50;;;37.51;25.08
23417;BME280;11881;42.432;25.632;2022-07-23T13:45:58;98920.19;;;37.40;25.16